Holmesville, Nebraska
Current Conditions -  °F | °C
As of 1:55 PM on Thursday 30 Oct 2014 (Local Time) from KBIE Reporting Station
Clear Clear  
Wind Chill: 64°   Ceiling: Unl
Heat Index: 64°   Visibility: 10mi
Dew Point: 40°   Wind: 23mph
Humidity: 41%   Direction: 340°NNW
Pressure: 30.1"   Gusts: 29mph
Location:  40.2°N, 96.66°W
Report Text: KBIE 301855Z AUTO 34020G25KT 10SM CLR 18/04 A3010 RMK AO2 T01770043
Loading
Personal Weather Stations






























Interactive Weather Map
Tropical Storm Tracking
New forecast layout! Learn more

10-Day Weather Forecast

Advertisements
Track Severe Weather on mobile